createdAt,value
2023-05-24T00:00:19.034Z,70
2023-05-24T00:30:30.032Z,69
2023-05-24T01:00:02.151Z,70
2023-05-24T01:30:25.113Z,70
2023-05-24T02:00:07.133Z,70
2023-05-24T03:00:06.554Z,69
2023-05-24T03:30:19.847Z,70
2023-05-24T04:00:01.030Z,69
2023-05-24T04:30:02.725Z,67
2023-05-24T05:00:16.459Z,66
2023-05-24T05:30:26.517Z,66
2023-05-24T06:00:10.645Z,66
2023-05-24T06:30:02.174Z,65
2023-05-24T07:00:03.330Z,64
2023-05-24T07:30:02.917Z,66
2023-05-24T08:00:24.353Z,64
2023-05-24T08:30:07.651Z,62
2023-05-24T09:00:18.554Z,60
2023-05-24T09:30:02.863Z,56
2023-05-24T10:00:23.100Z,55
2023-05-24T10:30:14.654Z,57
2023-05-24T11:00:27.085Z,54
2023-05-24T11:30:19.636Z,51
2023-05-24T12:00:17.114Z,49
2023-05-24T12:30:10.356Z,51
2023-05-24T13:00:02.027Z,33
2023-05-24T13:30:16.580Z,27
2023-05-24T14:00:29.875Z,28
2023-05-24T14:30:11.837Z,28
2023-05-24T15:00:02.718Z,25
2023-05-24T15:30:05.668Z,32
2023-05-24T16:00:27.447Z,39
2023-05-24T17:00:28.782Z,44
2023-05-24T17:30:19.410Z,47
2023-05-24T18:00:03.920Z,50
2023-05-24T18:30:14.116Z,51
2023-05-24T19:00:27.408Z,53
2023-05-24T19:30:18.807Z,57
2023-05-24T20:00:22.152Z,56
2023-05-24T20:30:24.167Z,55
2023-05-24T21:00:05.325Z,57
2023-05-24T21:30:15.416Z,55
2023-05-24T22:00:15.824Z,55
2023-05-24T22:30:26.234Z,55
2023-05-24T23:00:00.910Z,56
2023-05-24T23:30:03.421Z,60
